Дата Пункты Температура Давл., мм. Влажн., % Ветер Погодные явления
Воздуха Воды Направл. Скорость
05.06.16 09:00 Одесса 23.0 20.0 756 68 Пн 1 09 часов
05.06.16 06:00 Одесса 15.0 20.0 755 96 З 2 06 часов
05.06.16 03:00 Одесса 16.0 20.0 755 96 З 1 03 часа
04.06.16 09:00 Одесса 19.0 20.0 754 80 Пн-З 1 21 час
04.06.16 06:00 Одесса 23.0 21.0 753 60 Пн 0 18 часов
04.06.16 03:00 Одесса 23.0 21.0 754 61 Пн-С 1 15 часов
04.06.16 12:00 Одесса 21.0 19.0 754 69 Пн-С 2 12 часов
04.06.16 09:00 Одесса 20.0 19.0 753 80 Пн 1 09 часов
04.06.16 06:00 Одесса 16.0 19.0 753 94 Пн 1 06 часов
04.06.16 03:00 Одесса 16.0 19.0 752 93 Пн-З 1 03 часа
03.06.16 09:00 Одесса 16.0 19.0 753 94 Пд-З 1 21 час
03.06.16 06:00 Одесса 18.0 19.0 753 87 Пд-С 4 18 часов
03.06.16 03:00 Одесса 18.0 19.0 753 88 С 5 15 часов
03.06.16 12:00 Одесса 17.0 19.0 754 99 С 4 12 часов
03.06.16 09:00 Одесса 17.0 19.0 753 99 С 6 09 часов
03.06.16 06:00 Одесса 17.0 19.0 753 97 С 2 06 часов
03.06.16 03:00 Одесса 17.0 19.0 754 96 Пн-С 4 03 часа
02.06.16 09:00 Одесса 17.0 19.0 755 97 С 5 21 час
02.06.16 06:00 Одесса 17.0 19.0 755 93 С 5 18 часов
02.06.16 03:00 Одесса 18.0 19.0 755 76 С 8 15 часов
Количество строк
351 352 353 354 355 356 357 358 359 360
Page 359 of 530